• Join FlightAware (Why Join?)
  • Login
  • US Flag 
05:01AM EST


 

Airport Tracker/Info


-or-


 

Live Flight TrackerFlight Track Log ✈ UAL33 ✈ 27-Jun-2013 ✈ KORD - KIAH

Flight Track Log - Related Links

Times and Time Zones

All times are in EDT time to prevent confusion due to time zone crossing. See the UAL33 flight status page for this flight to view local times or setup timezone preferences in your user account.

Time Position Orientation Groundspeed Altitude Reporting Facility
EDT Latitude Longitude Course Direction KTS MPH feet Rate Location/Type
09:56PM 41.9820 -87.9180 North 26 30  Level FlightAware
09:56PM 41.9830 -87.9180 360° North 30 35 180 Level FlightAware
09:57PM 41.9850 -87.9180 360° North 17 20 180 Level FlightAware
09:57PM 41.9860 -87.9180 360° North 34 39 180 Level FlightAware
09:57PM 41.9870 -87.9180 360° North 25 29 180 Level FlightAware
09:57PM 41.9870 -87.9170 90° East 29 33 180 Level FlightAware
09:58PM 41.9870 -87.9130 90° East 29 33 180 Level FlightAware
09:58PM 41.9870 -87.9150 270° West 24 28 180 Level FlightAware
09:59PM 41.9900 -87.9150 360° North 24 28 180 Level FlightAware
09:59PM 41.9900 -87.9140 90° East 31 36 180 Level FlightAware
10:02PM 41.7736 -88.0738 194° South  Level Estimated
10:03PM 41.6815 -88.1415 187° South  Level Estimated
10:04PM 41.5893 -88.2090 189° South  Level Estimated
10:05PM 41.4970 -88.2763 180° South  Level Estimated
10:06PM 41.4048 -88.3435 189° South  Level Estimated
10:07PM 41.3125 -88.4104 190° South  Level Estimated
10:08PM 41.2369 -88.3132 136° Southeast  Level FlightAware Approximate
10:09PM 41.1450 -88.3809 193° South  Level Estimated
10:10PM 41.0524 -88.3150 152° Southeast  Level FlightAware Approximate
10:11PM 40.9609 -88.3834 192° South  Level Estimated
10:12PM 40.8693 -88.4516 191° South  Level Estimated
10:12PM 41.9420 -87.8540 147° Southeast 242 278 3,100  Level FlightAware
10:13PM 41.8880 -87.8630 187° South 294 338 4,800 1,800 Climbing FlightAware
10:13PM 41.8520 -87.8730 192° South 299 344 5,300 1,980 Climbing FlightAware
10:14PM 41.8130 -87.8850 193° South 298 343 6,700 3,540 Climbing FlightAware
10:14PM 41.7750 -87.8970 193° South 301 346 8,700 4,080 Climbing FlightAware
10:15PM 41.7280 -87.9140 195° South 309 356 11,000 3,720 Climbing FlightAware
10:16PM 41.6630 -87.9380 195° South 335 386 13,600 2,280 Climbing FlightAware
10:17PM 41.4980 -87.9970 195° South 454 522 16,400 2,100 Climbing FlightAware
10:18PM 41.3900 -88.0350 195° South 476 548 18,800 2,580 Climbing FlightAware
10:19PM 41.3040 -88.0650 195° South 493 567 20,400 2,400 Climbing FlightAware
10:19PM 41.2180 -88.0940 194° South 510 587 21,900 1,920 Climbing FlightAware
10:20PM 41.1210 -88.1210 192° South 536 617 22,900 1,980 Climbing FlightAware
10:21PM 40.9950 -88.1560 192° South 542 624 25,000 2,160 Climbing FlightAware
10:22PM 40.8960 -88.1840 192° South 553 636 26,200 1,680 Climbing FlightAware
10:22PM 40.7960 -88.2130 192° South 561 646 27,400 2,100 Climbing FlightAware
10:23PM 40.6900 -88.2430 192° South 549 632 29,100 2,400 Climbing FlightAware
10:24PM 40.5950 -88.2700 192° South 546 628 30,500 2,100 Climbing FlightAware
10:24PM 40.4790 -88.3030 192° South 542 624 32,200 2,160 Climbing FlightAware
10:25PM 40.3920 -88.3270 192° South 538 619 33,600 2,100 Climbing FlightAware
10:26PM 40.2610 -88.3900 200° South 513 590 35,500 1,680 Climbing FlightAware
10:27PM 40.1380 -88.4810 209° Southwest 517 595 36,900 1,260 Climbing FlightAware
10:28PM 40.0540 -88.5440 210° Southwest 518 596 37,600 1,200 Climbing FlightAware
10:28PM 39.9630 -88.6110 209° Southwest 512 589 38,600 900 Climbing FlightAware
10:29PM 39.8710 -88.6780 209° Southwest 508 585 39,000 180 Climbing FlightAware
10:30PM 39.7380 -88.7750 209° Southwest 508 585 39,000  Level FlightAware
10:31PM 39.6460 -88.8420 209° Southwest 510 587 39,000  Level FlightAware
10:32PM 39.5590 -88.9060 210° Southwest 511 588 39,000  Level FlightAware
10:32PM 39.4760 -88.9660 209° Southwest 512 589 39,000  Level FlightAware
10:33PM 39.3880 -89.0300 209° Southwest 514 592 39,000  Level FlightAware
10:34PM 39.3040 -89.0900 209° Southwest 515 593 39,000  Level FlightAware
10:34PM 39.2160 -89.1540 209° Southwest 515 593 39,000  Level FlightAware
10:35PM 39.1180 -89.2240 209° Southwest 513 590 39,000  Level FlightAware
10:36PM 39.0380 -89.2810 209° Southwest 513 590 39,000  Level FlightAware
10:36PM 38.9630 -89.3340 209° Southwest 512 589 39,000  Level FlightAware
10:37PM 38.8670 -89.4030 209° Southwest 514 592 39,000  Level FlightAware
10:38PM 38.7700 -89.4720 209° Southwest 513 590 39,000  Level FlightAware
10:39PM 38.7010 -89.5210 209° Southwest 513 590 39,000  Level FlightAware
10:39PM 38.6030 -89.5900 209° Southwest 514 592 39,000  Level FlightAware
10:40PM 38.5220 -89.6460 208° Southwest 512 589 39,000  Level FlightAware
10:41PM 38.4360 -89.7070 209° Southwest 511 588 39,000  Level FlightAware
10:41PM 38.3400 -89.7740 209° Southwest 512 589 39,000  Level FlightAware
10:42PM 38.2520 -89.8350 209° Southwest 516 594 39,000  Level FlightAware
10:43PM 38.1600 -89.8990 209° Southwest 517 595 39,000  Level FlightAware
10:44PM 38.0720 -89.9600 209° Southwest 516 594 39,000  Level FlightAware
10:44PM 37.9870 -90.0190 209° Southwest 517 595 39,000  Level FlightAware
10:44PM 37.9660 -90.0330 208° Southwest 518 596 39,000  Level FlightAware
10:48PM 37.6470 -90.2480 208° Southwest 518 596 39,000  Level FlightAware
10:48PM 37.5620 -90.3050 208° Southwest 518 596 39,000  Level FlightAware
10:49PM 37.4760 -90.3630 208° Southwest 518 596 39,000  Level FlightAware
10:50PM 37.4130 -90.4050 208° Southwest 518 596 39,000 720 Level FlightAware
10:50PM 37.1920 -90.5590 209° Southwest 513 590 40,000 660 Climbing FlightAware
10:51PM 37.1040 -90.6180 208° Southwest 511 588 40,000  Level FlightAware
10:52PM 37.0210 -90.6730 208° Southwest 510 587 40,000  Level FlightAware
10:53PM 36.9300 -90.7330 208° Southwest 508 585 40,000  Level FlightAware
10:53PM 36.8480 -90.7880 208° Southwest 507 583 40,000  Level FlightAware
10:54PM 36.7600 -90.8460 208° Southwest 510 587 40,000  Level FlightAware
10:55PM 36.6210 -90.9380 208° Southwest 514 592 40,000  Level FlightAware
10:56PM 36.4740 -91.0340 208° Southwest 514 592 40,000  Level FlightAware
10:57PM 36.3770 -91.0970 208° Southwest 517 595 40,000  Level FlightAware
10:58PM 36.2880 -91.1550 208° Southwest 515 593 40,000  Level FlightAware
10:58PM 36.1930 -91.2170 208° Southwest 515 593 40,000  Level FlightAware
10:59PM 36.1240 -91.2610 207° Southwest 513 590 40,000  Level FlightAware
10:59PM 36.0800 -91.2890 207° Southwest 513 590 40,000  Level FlightAware
11:03PM 35.6490 -91.5680 208° Southwest 514 592 40,000  Level FlightAware
11:04PM 35.5590 -91.6240 207° Southwest 516 594 40,000  Level FlightAware
11:04PM 35.4320 -91.7050 207° Southwest 518 596 40,000  Level FlightAware
11:05PM 35.3650 -91.7470 207° Southwest 518 596 40,000  Level FlightAware
11:06PM 35.2820 -91.8000 208° Southwest 518 596 40,000  Level FlightAware
11:06PM 35.2140 -91.8410 206° Southwest 518 596 40,000  Level FlightAware
11:07PM 35.0750 -91.9320 208° Southwest 522 601 40,000  Level FlightAware
11:08PM 35.0070 -91.9740 207° Southwest 522 601 40,000  Level FlightAware
11:09PM 34.9170 -92.0300 207° Southwest 522 601 40,000  Level FlightAware
11:09PM 34.8500 -92.0720 207° Southwest 522 601 40,000  Level FlightAware
11:11PM 34.7140 -92.1560 207° Southwest 522 601 40,000  Level FlightAware
11:11PM 34.6390 -92.2020 207° Southwest 522 601 40,000  Level FlightAware
11:12PM 34.5590 -92.2520 207° Southwest 522 601 40,000  Level FlightAware
11:13PM 34.4930 -92.2930 207° Southwest 522 601 40,000  Level FlightAware
11:13PM 34.4070 -92.3460 207° Southwest 522 601 40,000  Level FlightAware
11:14PM 34.3430 -92.3860 207° Southwest 522 601 40,000  Level FlightAware
11:15PM 34.2330 -92.4530 207° Southwest 522 601 40,000  Level FlightAware
11:16PM 34.1220 -92.5220 207° Southwest 522 601 40,000  Level FlightAware
11:17PM 34.0540 -92.5640 207° Southwest 522 601 40,000  Level FlightAware
11:17PM 33.7378 -92.3583 207° Southwest 503 579 40,000  Level Fort Worth Center
11:18PM 33.5967 -92.3814 188° South 503 579 40,000  Level Fort Worth Center
11:19PM 33.4600 -92.4067 189° South 503 579 40,000  Level Fort Worth Center
11:20PM 33.3253 -92.4317 189° South 498 573 40,000  Level Fort Worth Center
11:21PM 33.1844 -92.4569 189° South 504 580 40,000  Level Fort Worth Center
11:27PM 32.3764 -92.6050 189° South 524 603 40,000  Level FlightAware ADS-B
11:28PM 32.1820 -92.6398 189° South 523 602 40,000  Level FlightAware ADS-B
11:29PM 32.0607 -92.6616 189° South 520 598 40,000  Level FlightAware ADS-B
11:29PM 31.9999 -92.6766 192° South 525 604 40,000  Level FlightAware ADS-B
11:33PM 31.5577 -93.0791 218° Southwest 532 612 40,000  Level FlightAware ADS-B
11:34PM 31.4945 -93.1437 221° Southwest 533 613 40,000  Level FlightAware ADS-B
11:34PM 31.4859 -93.1533 224° Southwest 535 616 40,000  Level FlightAware ADS-B
11:34PM 31.4111 -93.2449 226° Southwest 535 616 40,000  Level FlightAware ADS-B
11:35PM 31.3572 -93.3121 227° Southwest 536 617 40,000  Level FlightAware ADS-B
11:36PM 31.3032 -93.3794 227° Southwest 537 618 40,000  Level FlightAware ADS-B
11:36PM 31.2521 -93.4432 227° Southwest 533 613 40,000 -420 Level FlightAware ADS-B
11:37PM 31.2021 -93.5053 227° Southwest 521 600 39,600 -1,620 Descending FlightAware ADS-B
11:37PM 31.1524 -93.5670 227° Southwest 516 594 38,400 -2,820 Descending FlightAware ADS-B
11:38PM 31.1026 -93.6287 227° Southwest 517 595 36,800 -3,180 Descending FlightAware ADS-B
11:38PM 31.0523 -93.6911 227° Southwest 514 592 35,200 -3,420 Descending FlightAware ADS-B
11:39PM 31.0018 -93.7530 226° Southwest 516 594 33,300 -3,960 Descending FlightAware ADS-B
11:39PM 30.9519 -93.8143 227° Southwest 525 604 31,200 -3,840 Descending FlightAware ADS-B
11:40PM 30.9022 -93.8757 227° Southwest 521 600 29,500 -4,020 Descending FlightAware ADS-B
11:40PM 30.8515 -93.9379 226° Southwest 528 608 27,200 -3,780 Descending FlightAware ADS-B
11:41PM 30.7998 -94.0018 227° Southwest 519 597 25,700 -2,820 Descending FlightAware ADS-B
11:41PM 30.7508 -94.0617 226° Southwest 502 578 24,300 -2,880 Descending FlightAware ADS-B
11:42PM 30.7030 -94.1203 227° Southwest 487 560 22,800 -3,180 Descending FlightAware ADS-B
11:42PM 30.6548 -94.1791 226° Southwest 482 555 21,100 -3,300 Descending FlightAware ADS-B
11:43PM 30.6091 -94.2351 227° Southwest 471 542 19,500 -3,060 Descending FlightAware ADS-B
11:43PM 30.5637 -94.2905 226° Southwest 460 529 18,000 -3,000 Descending FlightAware ADS-B
11:44PM 30.5196 -94.3438 226° Southwest 453 521 16,500 -2,760 Descending FlightAware ADS-B
11:44PM 30.4763 -94.3964 226° Southwest 437 503 15,200 -2,580 Descending FlightAware ADS-B
11:45PM 30.4352 -94.4462 226° Southwest 422 486 13,900 -2,700 Descending FlightAware ADS-B
11:45PM 30.3948 -94.4951 226° Southwest 414 476 12,500 -2,640 Descending FlightAware ADS-B
11:46PM 30.3552 -94.5428 226° Southwest 402 463 11,300 -1,680 Descending FlightAware ADS-B
11:47PM 30.2813 -94.6321 226° Southwest 362 417 10,000 -1,080 Descending FlightAware ADS-B
11:47PM 30.2642 -94.6528 226° Southwest 343 395 10,000 -420 Level FlightAware ADS-B
11:48PM 30.2055 -94.7234 226° Southwest 297 342 9,500 -780 Descending FlightAware ADS-B
11:48PM 30.1911 -94.7408 226° Southwest 296 341 9,100 -1,380 Descending FlightAware ADS-B
11:49PM 30.1189 -94.8274 226° Southwest 281 323 7,400 -1,380 Descending FlightAware ADS-B
11:50PM 30.0861 -94.8668 226° Southwest 275 316 6,500 -1,380 Descending FlightAware ADS-B
11:51PM 30.0338 -94.9294 226° Southwest 269 310 5,200 -1,320 Descending FlightAware ADS-B
11:51PM 30.0206 -94.9451 226° Southwest 267 307 4,900 -1,200 Descending FlightAware ADS-B
11:51PM 30.0116 -94.9561 227° Southwest 266 306 4,700 -1,200 Descending FlightAware ADS-B
11:52PM 30.0082 -94.9605 228° Southwest 266 306 4,600 -2,280 Descending FlightAware ADS-B
11:52PM 30.0054 -94.9649 234° Southwest 266 306 4,400 -1,740 Descending FlightAware ADS-B
11:52PM 30.0033 -94.9687 237° Southwest 266 306 4,400 -900 Level FlightAware ADS-B
11:52PM 30.0009 -94.9736 241° Southwest 266 306 4,300 -840 Descending FlightAware ADS-B
11:52PM 29.9874 -95.0074 246° West 258 297 4,000 -540 Descending FlightAware ADS-B
11:52PM 29.9833 -95.0183 247° West 251 289 4,000 -480 Level FlightAware ADS-B
11:52PM 29.9813 -95.0245 250° West 247 284 3,900 -1,020 Descending FlightAware ADS-B
11:53PM 29.9791 -95.0336 257° West 245 282 3,800 -600 Descending FlightAware ADS-B
11:53PM 29.9783 -95.0384 259° West 243 280 3,800  Level FlightAware ADS-B
11:53PM 29.9777 -95.0435 262° West 241 277 3,800 -780 Level FlightAware ADS-B
11:53PM 29.9773 -95.0489 265° West 239 275 3,700 -1,200 Descending FlightAware ADS-B
11:53PM 29.9770 -95.0559 267° West 236 272 3,600 -780 Descending FlightAware ADS-B
11:53PM 29.9768 -95.0686 269° West 232 267 3,500 -600 Descending FlightAware ADS-B
11:53PM 29.9770 -95.0829 271° West 225 259 3,400 -720 Descending FlightAware ADS-B
11:53PM 29.9772 -95.1005 271° West 216 249 3,200 -720 Descending FlightAware ADS-B
11:54PM 29.9774 -95.1144 271° West 210 242 3,100 -720 Descending FlightAware ADS-B
11:54PM 29.9776 -95.1309 271° West 203 234 2,900 -1,020 Descending FlightAware ADS-B
11:54PM 29.9776 -95.1407 270° West 197 227 2,700 -960 Descending FlightAware ADS-B
11:54PM 29.9776 -95.1565 270° West 190 219 2,500 -1,020 Descending FlightAware ADS-B
11:55PM 29.9776 -95.1715 270° West 184 212 2,200 -1,020 Descending FlightAware ADS-B
11:55PM 29.9776 -95.1857 270° West 173 199 2,000 -960 Descending FlightAware ADS-B
11:55PM 29.9776 -95.2016 270° West 166 191 1,700 -960 Descending FlightAware ADS-B
11:55PM 29.9776 -95.2136 270° West 140 161 1,500 -600 Descending FlightAware ADS-B
11:56PM 29.9776 -95.2249 270° West 132 152 1,400 -600 Descending FlightAware ADS-B
11:56PM 29.9776 -95.2357 270° West 133 153 1,200 -840 Descending FlightAware ADS-B
11:56PM 29.9776 -95.2410 270° West 133 153 1,100 -840 Descending FlightAware ADS-B
11:56PM 29.9777 -95.2521 271° West 134 154 900 -840 Descending FlightAware ADS-B
11:56PM 29.9777 -95.2571 270° West 135 155 800 -900 Descending FlightAware ADS-B
11:56PM 29.9778 -95.2624 271° West 135 155 700 -600 Descending FlightAware ADS-B
11:57PM 29.9777 -95.2732 269° West 135 155 600 -600 Descending FlightAware ADS-B
11:57PM 29.9775 -95.2847 269° West 137 158 400 -900 Descending FlightAware ADS-B
11:57PM 29.9775 -95.2876 270° West 137 158 300 -660 Descending FlightAware ADS-B
11:57PM 29.9776 -95.2989 271° West 137 158 200 -420 Descending FlightAware ADS-B